sensor_id;sensor_type;location;lat;lon;timestamp;temperature;humidity
58413;DHT22;44209;52.952;6.790;2023-07-13T00:01:16;15.90;99.90
58413;DHT22;44209;52.952;6.790;2023-07-13T00:03:42;15.90;99.90
58413;DHT22;44209;52.952;6.790;2023-07-13T00:06:08;15.90;99.90
58413;DHT22;44209;52.952;6.790;2023-07-13T00:08:34;15.80;99.90
58413;DHT22;44209;52.952;6.790;2023-07-13T00:11:01;15.90;99.90
58413;DHT22;44209;52.952;6.790;2023-07-13T00:13:29;15.80;99.90
58413;DHT22;44209;52.952;6.790;2023-07-13T00:15:56;15.80;99.90
58413;DHT22;44209;52.952;6.790;2023-07-13T00:18:22;15.80;99.90
58413;DHT22;44209;52.952;6.790;2023-07-13T00:20:48;15.80;99.90
58413;DHT22;44209;52.952;6.790;2023-07-13T00:23:14;15.80;99.90
58413;DHT22;44209;52.952;6.790;2023-07-13T00:25:40;15.80;99.90
58413;DHT22;44209;52.952;6.790;2023-07-13T00:28:06;15.80;99.90
58413;DHT22;44209;52.952;6.790;2023-07-13T00:30:32;15.80;99.90
58413;DHT22;44209;52.952;6.790;2023-07-13T00:32:57;15.80;99.90
58413;DHT22;44209;52.952;6.790;2023-07-13T00:35:23;15.80;99.90
58413;DHT22;44209;52.952;6.790;2023-07-13T00:37:49;15.80;99.90
58413;DHT22;44209;52.952;6.790;2023-07-13T00:40:16;15.80;99.90
58413;DHT22;44209;52.952;6.790;2023-07-13T00:42:42;15.80;99.90
58413;DHT22;44209;52.952;6.790;2023-07-13T00:47:55;15.80;99.90
58413;DHT22;44209;52.952;6.790;2023-07-13T00:50:23;15.80;99.90
58413;DHT22;44209;52.952;6.790;2023-07-13T00:52:53;15.80;99.90
58413;DHT22;44209;52.952;6.790;2023-07-13T00:55:20;15.80;99.90
58413;DHT22;44209;52.952;6.790;2023-07-13T00:57:47;15.90;99.90
58413;DHT22;44209;52.952;6.790;2023-07-13T01:00:13;15.90;99.90
58413;DHT22;44209;52.952;6.790;2023-07-13T01:02:42;15.90;99.90
58413;DHT22;44209;52.952;6.790;2023-07-13T01:05:15;15.80;99.90
58413;DHT22;44209;52.952;6.790;2023-07-13T01:07:42;15.90;99.90
58413;DHT22;44209;52.952;6.790;2023-07-13T01:10:11;15.80;99.90
58413;DHT22;44209;52.952;6.790;2023-07-13T01:12:36;15.80;99.90
58413;DHT22;44209;52.952;6.790;2023-07-13T01:15:03;15.80;99.90
58413;DHT22;44209;52.952;6.790;2023-07-13T01:17:31;15.80;99.90
58413;DHT22;44209;52.952;6.790;2023-07-13T01:19:58;15.80;99.90
58413;DHT22;44209;52.952;6.790;2023-07-13T01:22:26;15.80;99.90
58413;DHT22;44209;52.952;6.790;2023-07-13T01:24:53;15.80;99.90
58413;DHT22;44209;52.952;6.790;2023-07-13T01:27:25;15.80;99.90
58413;DHT22;44209;52.952;6.790;2023-07-13T01:29:52;15.80;99.90
58413;DHT22;44209;52.952;6.790;2023-07-13T01:32:23;15.80;99.90
58413;DHT22;44209;52.952;6.790;2023-07-13T01:34:51;15.80;99.90
58413;DHT22;44209;52.952;6.790;2023-07-13T01:37:20;15.80;99.90
58413;DHT22;44209;52.952;6.790;2023-07-13T01:39:46;15.80;99.90
58413;DHT22;44209;52.952;6.790;2023-07-13T01:42:12;15.90;99.90
58413;DHT22;44209;52.952;6.790;2023-07-13T01:44:38;15.80;99.90
58413;DHT22;44209;52.952;6.790;2023-07-13T01:47:04;15.80;99.90
58413;DHT22;44209;52.952;6.790;2023-07-13T01:49:30;15.90;99.90
58413;DHT22;44209;52.952;6.790;2023-07-13T01:51:55;15.90;99.90
58413;DHT22;44209;52.952;6.790;2023-07-13T01:54:21;15.90;99.90
58413;DHT22;44209;52.952;6.790;2023-07-13T01:56:47;15.80;99.90
58413;DHT22;44209;52.952;6.790;2023-07-13T01:59:13;15.90;99.90
58413;DHT22;44209;52.952;6.790;2023-07-13T02:01:38;15.90;99.90
58413;DHT22;44209;52.952;6.790;2023-07-13T02:04:04;15.90;99.90
58413;DHT22;44209;52.952;6.790;2023-07-13T02:06:30;15.90;99.90
58413;DHT22;44209;52.952;6.790;2023-07-13T02:08:55;15.90;99.90
58413;DHT22;44209;52.952;6.790;2023-07-13T02:11:21;15.90;99.90
58413;DHT22;44209;52.952;6.790;2023-07-13T02:13:47;15.90;99.90
58413;DHT22;44209;52.952;6.790;2023-07-13T02:16:13;15.90;99.90
58413;DHT22;44209;52.952;6.790;2023-07-13T02:18:38;15.90;99.90
58413;DHT22;44209;52.952;6.790;2023-07-13T02:21:04;15.90;99.90
58413;DHT22;44209;52.952;6.790;2023-07-13T02:23:30;15.90;99.90
58413;DHT22;44209;52.952;6.790;2023-07-13T02:26:00;15.90;99.90
58413;DHT22;44209;52.952;6.790;2023-07-13T02:28:28;15.90;99.90
58413;DHT22;44209;52.952;6.790;2023-07-13T02:30:54;15.90;99.90
58413;DHT22;44209;52.952;6.790;2023-07-13T02:33:19;15.90;99.90
58413;DHT22;44209;52.952;6.790;2023-07-13T02:35:45;15.90;99.90
58413;DHT22;44209;52.952;6.790;2023-07-13T02:38:11;15.90;99.90
58413;DHT22;44209;52.952;6.790;2023-07-13T02:40:37;15.90;99.90
58413;DHT22;44209;52.952;6.790;2023-07-13T02:43:03;15.90;99.90
58413;DHT22;44209;52.952;6.790;2023-07-13T02:45:29;15.80;99.90
58413;DHT22;44209;52.952;6.790;2023-07-13T02:47:55;15.80;99.90
58413;DHT22;44209;52.952;6.790;2023-07-13T02:50:21;15.80;99.90
58413;DHT22;44209;52.952;6.790;2023-07-13T02:52:46;15.70;99.90
58413;DHT22;44209;52.952;6.790;2023-07-13T02:55:12;15.70;99.90
58413;DHT22;44209;52.952;6.790;2023-07-13T02:57:38;15.70;99.90
58413;DHT22;44209;52.952;6.790;2023-07-13T03:00:04;15.70;99.90
58413;DHT22;44209;52.952;6.790;2023-07-13T03:02:33;15.70;99.90
58413;DHT22;44209;52.952;6.790;2023-07-13T03:04:59;15.70;99.90
58413;DHT22;44209;52.952;6.790;2023-07-13T03:07:25;15.70;99.90
58413;DHT22;44209;52.952;6.790;2023-07-13T03:09:57;15.60;99.90
58413;DHT22;44209;52.952;6.790;2023-07-13T03:12:24;15.70;99.90
58413;DHT22;44209;52.952;6.790;2023-07-13T03:14:50;15.60;99.90
58413;DHT22;44209;52.952;6.790;2023-07-13T03:17:16;15.60;99.90
58413;DHT22;44209;52.952;6.790;2023-07-13T03:19:41;15.60;99.90
58413;DHT22;44209;52.952;6.790;2023-07-13T03:22:07;15.60;99.90
58413;DHT22;44209;52.952;6.790;2023-07-13T03:24:34;15.60;99.90
58413;DHT22;44209;52.952;6.790;2023-07-13T03:27:04;15.60;99.90
58413;DHT22;44209;52.952;6.790;2023-07-13T03:29:29;15.60;99.90
58413;DHT22;44209;52.952;6.790;2023-07-13T03:31:55;15.60;99.90
58413;DHT22;44209;52.952;6.790;2023-07-13T03:34:21;15.60;99.90
58413;DHT22;44209;52.952;6.790;2023-07-13T03:36:47;15.60;99.90
58413;DHT22;44209;52.952;6.790;2023-07-13T03:39:12;15.60;99.90
58413;DHT22;44209;52.952;6.790;2023-07-13T03:41:38;15.60;99.90
58413;DHT22;44209;52.952;6.790;2023-07-13T03:44:04;15.60;99.90
58413;DHT22;44209;52.952;6.790;2023-07-13T03:46:30;15.60;99.90
58413;DHT22;44209;52.952;6.790;2023-07-13T03:48:56;15.60;99.90
58413;DHT22;44209;52.952;6.790;2023-07-13T03:51:22;15.60;99.90
58413;DHT22;44209;52.952;6.790;2023-07-13T03:53:48;15.60;99.90
58413;DHT22;44209;52.952;6.790;2023-07-13T03:56:15;15.60;99.90
58413;DHT22;44209;52.952;6.790;2023-07-13T03:58:42;15.50;99.90
58413;DHT22;44209;52.952;6.790;2023-07-13T04:01:10;15.50;99.90
58413;DHT22;44209;52.952;6.790;2023-07-13T04:03:36;15.50;99.90
58413;DHT22;44209;52.952;6.790;2023-07-13T04:06:04;15.60;99.90
58413;DHT22;44209;52.952;6.790;2023-07-13T04:08:32;15.60;99.90
58413;DHT22;44209;52.952;6.790;2023-07-13T04:10:59;15.60;99.90
58413;DHT22;44209;52.952;6.790;2023-07-13T04:13:25;15.60;99.90
58413;DHT22;44209;52.952;6.790;2023-07-13T04:15:51;15.50;99.90
58413;DHT22;44209;52.952;6.790;2023-07-13T04:18:17;15.50;99.90
58413;DHT22;44209;52.952;6.790;2023-07-13T04:20:48;15.50;99.90
58413;DHT22;44209;52.952;6.790;2023-07-13T04:23:15;15.50;99.90
58413;DHT22;44209;52.952;6.790;2023-07-13T04:25:49;15.50;99.90
58413;DHT22;44209;52.952;6.790;2023-07-13T04:28:22;15.50;99.90
58413;DHT22;44209;52.952;6.790;2023-07-13T04:30:48;15.50;99.90
58413;DHT22;44209;52.952;6.790;2023-07-13T04:33:14;15.50;99.90
58413;DHT22;44209;52.952;6.790;2023-07-13T04:35:41;15.50;99.90
58413;DHT22;44209;52.952;6.790;2023-07-13T04:38:06;15.50;99.90
58413;DHT22;44209;52.952;6.790;2023-07-13T04:40:32;15.50;99.90
58413;DHT22;44209;52.952;6.790;2023-07-13T04:42:58;15.50;99.90
58413;DHT22;44209;52.952;6.790;2023-07-13T04:45:24;15.50;99.90
58413;DHT22;44209;52.952;6.790;2023-07-13T04:47:50;15.50;99.90
58413;DHT22;44209;52.952;6.790;2023-07-13T04:50:16;15.50;99.90
58413;DHT22;44209;52.952;6.790;2023-07-13T04:52:46;15.50;99.90
58413;DHT22;44209;52.952;6.790;2023-07-13T04:55:12;15.50;99.90
58413;DHT22;44209;52.952;6.790;2023-07-13T04:57:37;15.50;99.90
58413;DHT22;44209;52.952;6.790;2023-07-13T05:00:04;15.60;99.90
58413;DHT22;44209;52.952;6.790;2023-07-13T05:02:30;15.60;99.90
58413;DHT22;44209;52.952;6.790;2023-07-13T05:04:57;15.70;99.90
58413;DHT22;44209;52.952;6.790;2023-07-13T05:07:23;15.70;99.90
58413;DHT22;44209;52.952;6.790;2023-07-13T05:09:48;15.70;99.90
58413;DHT22;44209;52.952;6.790;2023-07-13T05:12:14;15.70;99.90
58413;DHT22;44209;52.952;6.790;2023-07-13T05:14:40;15.80;99.90
58413;DHT22;44209;52.952;6.790;2023-07-13T05:17:05;15.80;99.90
58413;DHT22;44209;52.952;6.790;2023-07-13T05:19:31;15.90;99.90
58413;DHT22;44209;52.952;6.790;2023-07-13T05:21:57;15.90;99.90
58413;DHT22;44209;52.952;6.790;2023-07-13T05:24:23;16.00;99.90
58413;DHT22;44209;52.952;6.790;2023-07-13T05:26:49;16.00;99.90
58413;DHT22;44209;52.952;6.790;2023-07-13T05:29:14;16.00;99.90
58413;DHT22;44209;52.952;6.790;2023-07-13T05:31:40;16.00;99.90
58413;DHT22;44209;52.952;6.790;2023-07-13T05:34:06;16.10;99.90
58413;DHT22;44209;52.952;6.790;2023-07-13T05:36:32;16.10;99.90
58413;DHT22;44209;52.952;6.790;2023-07-13T05:38:57;16.10;99.90
58413;DHT22;44209;52.952;6.790;2023-07-13T05:41:23;16.10;99.90
58413;DHT22;44209;52.952;6.790;2023-07-13T05:43:49;16.20;99.90
58413;DHT22;44209;52.952;6.790;2023-07-13T05:46:14;16.30;99.90
58413;DHT22;44209;52.952;6.790;2023-07-13T05:48:41;16.30;99.90
58413;DHT22;44209;52.952;6.790;2023-07-13T05:51:06;16.40;99.90
58413;DHT22;44209;52.952;6.790;2023-07-13T05:53:33;16.50;99.90
58413;DHT22;44209;52.952;6.790;2023-07-13T05:55:59;16.60;99.90
58413;DHT22;44209;52.952;6.790;2023-07-13T05:58:24;16.60;99.90
58413;DHT22;44209;52.952;6.790;2023-07-13T06:01:03;16.70;99.90
58413;DHT22;44209;52.952;6.790;2023-07-13T06:03:29;16.80;99.90
58413;DHT22;44209;52.952;6.790;2023-07-13T06:05:55;16.80;99.90
58413;DHT22;44209;52.952;6.790;2023-07-13T06:08:21;16.90;99.90
58413;DHT22;44209;52.952;6.790;2023-07-13T06:10:47;17.00;99.90
58413;DHT22;44209;52.952;6.790;2023-07-13T06:13:12;17.10;99.90
58413;DHT22;44209;52.952;6.790;2023-07-13T06:15:38;17.20;99.90
58413;DHT22;44209;52.952;6.790;2023-07-13T06:18:04;17.30;99.90
58413;DHT22;44209;52.952;6.790;2023-07-13T06:20:30;17.40;99.90
58413;DHT22;44209;52.952;6.790;2023-07-13T06:22:55;17.50;99.90
58413;DHT22;44209;52.952;6.790;2023-07-13T06:25:21;17.50;99.90
58413;DHT22;44209;52.952;6.790;2023-07-13T06:27:47;17.60;99.90
58413;DHT22;44209;52.952;6.790;2023-07-13T06:30:13;17.70;99.90
58413;DHT22;44209;52.952;6.790;2023-07-13T06:32:38;17.80;99.90
58413;DHT22;44209;52.952;6.790;2023-07-13T06:35:05;17.90;99.90
58413;DHT22;44209;52.952;6.790;2023-07-13T06:37:30;18.00;99.90
58413;DHT22;44209;52.952;6.790;2023-07-13T06:39:56;18.00;99.90
58413;DHT22;44209;52.952;6.790;2023-07-13T06:42:22;18.00;99.90
58413;DHT22;44209;52.952;6.790;2023-07-13T06:44:48;18.10;99.90
58413;DHT22;44209;52.952;6.790;2023-07-13T06:47:13;18.20;99.90
58413;DHT22;44209;52.952;6.790;2023-07-13T06:49:39;18.30;99.90
58413;DHT22;44209;52.952;6.790;2023-07-13T06:52:05;18.40;99.90
58413;DHT22;44209;52.952;6.790;2023-07-13T06:54:31;18.50;99.90
58413;DHT22;44209;52.952;6.790;2023-07-13T06:56:56;18.60;99.90
58413;DHT22;44209;52.952;6.790;2023-07-13T06:59:22;18.60;99.90
58413;DHT22;44209;52.952;6.790;2023-07-13T07:01:48;18.60;99.90
58413;DHT22;44209;52.952;6.790;2023-07-13T07:04:13;18.80;99.90
58413;DHT22;44209;52.952;6.790;2023-07-13T07:06:39;18.90;99.90
58413;DHT22;44209;52.952;6.790;2023-07-13T07:09:05;18.90;99.90
58413;DHT22;44209;52.952;6.790;2023-07-13T07:11:30;19.10;99.90
58413;DHT22;44209;52.952;6.790;2023-07-13T07:13:56;19.20;99.90
58413;DHT22;44209;52.952;6.790;2023-07-13T07:16:23;19.30;99.90
58413;DHT22;44209;52.952;6.790;2023-07-13T07:18:49;19.30;99.90
58413;DHT22;44209;52.952;6.790;2023-07-13T07:21:15;19.30;99.90
58413;DHT22;44209;52.952;6.790;2023-07-13T07:23:42;19.20;99.90
58413;DHT22;44209;52.952;6.790;2023-07-13T07:26:08;19.20;99.90
58413;DHT22;44209;52.952;6.790;2023-07-13T07:28:36;19.10;99.90
58413;DHT22;44209;52.952;6.790;2023-07-13T07:31:02;19.00;99.90
58413;DHT22;44209;52.952;6.790;2023-07-13T07:33:27;18.90;99.90
58413;DHT22;44209;52.952;6.790;2023-07-13T07:35:53;18.90;99.90
58413;DHT22;44209;52.952;6.790;2023-07-13T07:38:19;18.90;99.90
58413;DHT22;44209;52.952;6.790;2023-07-13T07:40:45;18.80;99.90
58413;DHT22;44209;52.952;6.790;2023-07-13T07:43:12;18.80;99.90
58413;DHT22;44209;52.952;6.790;2023-07-13T07:45:39;18.80;99.90
58413;DHT22;44209;52.952;6.790;2023-07-13T07:48:06;18.70;99.90
58413;DHT22;44209;52.952;6.790;2023-07-13T07:50:32;18.70;99.90
58413;DHT22;44209;52.952;6.790;2023-07-13T07:52:58;18.80;99.90
58413;DHT22;44209;52.952;6.790;2023-07-13T07:55:24;18.80;99.90
58413;DHT22;44209;52.952;6.790;2023-07-13T07:57:53;18.70;99.90
58413;DHT22;44209;52.952;6.790;2023-07-13T08:00:19;18.70;99.90
58413;DHT22;44209;52.952;6.790;2023-07-13T08:02:45;18.70;99.90
58413;DHT22;44209;52.952;6.790;2023-07-13T08:05:11;18.60;99.90
58413;DHT22;44209;52.952;6.790;2023-07-13T08:07:38;18.60;99.90
58413;DHT22;44209;52.952;6.790;2023-07-13T08:10:07;18.50;99.90
58413;DHT22;44209;52.952;6.790;2023-07-13T08:12:37;18.40;99.90
58413;DHT22;44209;52.952;6.790;2023-07-13T08:15:04;18.40;99.90
58413;DHT22;44209;52.952;6.790;2023-07-13T08:17:31;18.40;99.90
58413;DHT22;44209;52.952;6.790;2023-07-13T08:19:57;18.50;99.90
58413;DHT22;44209;52.952;6.790;2023-07-13T08:22:22;18.60;99.90
58413;DHT22;44209;52.952;6.790;2023-07-13T08:24:48;18.80;99.90
58413;DHT22;44209;52.952;6.790;2023-07-13T08:27:23;18.90;99.90
58413;DHT22;44209;52.952;6.790;2023-07-13T08:29:49;18.90;99.90
58413;DHT22;44209;52.952;6.790;2023-07-13T08:32:15;19.00;99.90
58413;DHT22;44209;52.952;6.790;2023-07-13T08:34:41;19.00;99.90
58413;DHT22;44209;52.952;6.790;2023-07-13T08:37:07;19.00;99.90
58413;DHT22;44209;52.952;6.790;2023-07-13T08:39:33;19.00;99.90
58413;DHT22;44209;52.952;6.790;2023-07-13T08:42:06;19.00;99.90
58413;DHT22;44209;52.952;6.790;2023-07-13T08:47:51;19.00;99.90
58413;DHT22;44209;52.952;6.790;2023-07-13T08:50:22;19.00;99.90
58413;DHT22;44209;52.952;6.790;2023-07-13T08:52:49;18.90;99.90
58413;DHT22;44209;52.952;6.790;2023-07-13T08:55:21;18.80;99.90
58413;DHT22;44209;52.952;6.790;2023-07-13T08:57:53;18.70;99.90
58413;DHT22;44209;52.952;6.790;2023-07-13T09:00:20;18.60;99.90
58413;DHT22;44209;52.952;6.790;2023-07-13T09:16:27;18.00;99.90
58413;DHT22;44209;52.952;6.790;2023-07-13T09:19:02;17.90;99.90
58413;DHT22;44209;52.952;6.790;2023-07-13T09:21:37;17.90;99.90
58413;DHT22;44209;52.952;6.790;2023-07-13T09:24:37;17.80;99.90
58413;DHT22;44209;52.952;6.790;2023-07-13T09:27:13;17.70;99.90
58413;DHT22;44209;52.952;6.790;2023-07-13T09:29:54;17.60;99.90
58413;DHT22;44209;52.952;6.790;2023-07-13T09:32:23;17.60;99.90
58413;DHT22;44209;52.952;6.790;2023-07-13T09:34:52;17.60;99.90
58413;DHT22;44209;52.952;6.790;2023-07-13T09:37:24;17.60;99.90
58413;DHT22;44209;52.952;6.790;2023-07-13T09:39:54;17.50;99.90
58413;DHT22;44209;52.952;6.790;2023-07-13T09:42:22;17.40;99.90
58413;DHT22;44209;52.952;6.790;2023-07-13T09:44:59;17.40;99.90
58413;DHT22;44209;52.952;6.790;2023-07-13T09:47:29;17.40;99.90
58413;DHT22;44209;52.952;6.790;2023-07-13T09:50:04;17.40;99.90
58413;DHT22;44209;52.952;6.790;2023-07-13T09:52:43;17.30;99.90
58413;DHT22;44209;52.952;6.790;2023-07-13T09:55:36;17.30;99.90
58413;DHT22;44209;52.952;6.790;2023-07-13T09:58:04;17.20;99.90
58413;DHT22;44209;52.952;6.790;2023-07-13T10:00:31;17.20;99.90
58413;DHT22;44209;52.952;6.790;2023-07-13T10:03:01;17.20;99.90
58413;DHT22;44209;52.952;6.790;2023-07-13T10:05:36;17.30;99.90
58413;DHT22;44209;52.952;6.790;2023-07-13T10:08:02;17.50;99.90
58413;DHT22;44209;52.952;6.790;2023-07-13T10:10:28;17.70;99.90
58413;DHT22;44209;52.952;6.790;2023-07-13T10:12:54;18.00;99.90
58413;DHT22;44209;52.952;6.790;2023-07-13T10:15:24;18.20;99.90
58413;DHT22;44209;52.952;6.790;2023-07-13T10:17:53;18.30;99.90
58413;DHT22;44209;52.952;6.790;2023-07-13T10:20:21;18.50;99.90
58413;DHT22;44209;52.952;6.790;2023-07-13T10:23:05;18.70;99.90
58413;DHT22;44209;52.952;6.790;2023-07-13T10:25:39;18.90;99.90
58413;DHT22;44209;52.952;6.790;2023-07-13T10:28:27;19.00;99.90
58413;DHT22;44209;52.952;6.790;2023-07-13T10:30:56;19.20;99.90
58413;DHT22;44209;52.952;6.790;2023-07-13T10:33:24;19.40;99.90
58413;DHT22;44209;52.952;6.790;2023-07-13T10:35:52;19.60;99.90
58413;DHT22;44209;52.952;6.790;2023-07-13T10:38:22;19.60;99.90
58413;DHT22;44209;52.952;6.790;2023-07-13T10:41:04;19.80;99.90
58413;DHT22;44209;52.952;6.790;2023-07-13T10:43:35;20.00;99.90
58413;DHT22;44209;52.952;6.790;2023-07-13T10:46:07;20.00;99.90
58413;DHT22;44209;52.952;6.790;2023-07-13T10:48:34;20.30;99.90
58413;DHT22;44209;52.952;6.790;2023-07-13T10:51:03;20.50;99.90
58413;DHT22;44209;52.952;6.790;2023-07-13T10:53:36;20.70;99.90
58413;DHT22;44209;52.952;6.790;2023-07-13T10:56:18;20.80;99.90
58413;DHT22;44209;52.952;6.790;2023-07-13T10:58:45;20.90;99.90
58413;DHT22;44209;52.952;6.790;2023-07-13T11:01:14;20.90;99.90
58413;DHT22;44209;52.952;6.790;2023-07-13T11:11:56;20.30;99.90
58413;DHT22;44209;52.952;6.790;2023-07-13T11:15:10;20.10;99.90
58413;DHT22;44209;52.952;6.790;2023-07-13T11:19:53;19.40;99.90
58413;DHT22;44209;52.952;6.790;2023-07-13T11:22:48;19.10;99.90
58413;DHT22;44209;52.952;6.790;2023-07-13T11:28:16;18.60;99.90
58413;DHT22;44209;52.952;6.790;2023-07-13T11:36:02;18.20;99.90
58413;DHT22;44209;52.952;6.790;2023-07-13T11:38:38;18.20;99.90
58413;DHT22;44209;52.952;6.790;2023-07-13T11:41:20;18.10;99.90
58413;DHT22;44209;52.952;6.790;2023-07-13T11:43:48;18.10;99.90
58413;DHT22;44209;52.952;6.790;2023-07-13T11:46:19;17.90;99.90
58413;DHT22;44209;52.952;6.790;2023-07-13T11:48:46;17.90;99.90
58413;DHT22;44209;52.952;6.790;2023-07-13T11:51:33;18.00;99.90
58413;DHT22;44209;52.952;6.790;2023-07-13T11:54:15;18.00;99.90
58413;DHT22;44209;52.952;6.790;2023-07-13T11:56:42;18.30;99.90
58413;DHT22;44209;52.952;6.790;2023-07-13T11:59:11;18.50;99.90
58413;DHT22;44209;52.952;6.790;2023-07-13T12:01:44;18.70;99.90
58413;DHT22;44209;52.952;6.790;2023-07-13T12:04:21;18.70;99.90
58413;DHT22;44209;52.952;6.790;2023-07-13T12:06:56;18.80;99.90
58413;DHT22;44209;52.952;6.790;2023-07-13T12:09:26;19.00;99.90
58413;DHT22;44209;52.952;6.790;2023-07-13T12:11:53;19.30;99.90
58413;DHT22;44209;52.952;6.790;2023-07-13T12:14:19;19.30;99.90
58413;DHT22;44209;52.952;6.790;2023-07-13T12:16:46;19.50;99.90
58413;DHT22;44209;52.952;6.790;2023-07-13T12:19:28;19.80;99.90
58413;DHT22;44209;52.952;6.790;2023-07-13T12:21:58;20.10;99.90
58413;DHT22;44209;52.952;6.790;2023-07-13T12:24:25;20.30;99.90
58413;DHT22;44209;52.952;6.790;2023-07-13T12:27:00;20.50;99.90
58413;DHT22;44209;52.952;6.790;2023-07-13T12:29:26;20.70;99.90
58413;DHT22;44209;52.952;6.790;2023-07-13T12:31:52;20.80;99.90
58413;DHT22;44209;52.952;6.790;2023-07-13T12:34:20;20.90;99.90
58413;DHT22;44209;52.952;6.790;2023-07-13T12:36:59;21.10;99.90
58413;DHT22;44209;52.952;6.790;2023-07-13T12:39:45;21.20;99.90
58413;DHT22;44209;52.952;6.790;2023-07-13T12:42:28;21.30;99.90
58413;DHT22;44209;52.952;6.790;2023-07-13T12:44:56;21.20;99.90
58413;DHT22;44209;52.952;6.790;2023-07-13T12:47:23;21.20;99.90
58413;DHT22;44209;52.952;6.790;2023-07-13T12:49:53;21.30;99.90
58413;DHT22;44209;52.952;6.790;2023-07-13T12:52:29;21.40;99.90
58413;DHT22;44209;52.952;6.790;2023-07-13T12:54:58;21.60;99.90
58413;DHT22;44209;52.952;6.790;2023-07-13T12:57:25;21.60;99.90
58413;DHT22;44209;52.952;6.790;2023-07-13T12:59:53;21.40;99.90
58413;DHT22;44209;52.952;6.790;2023-07-13T13:02:33;21.30;99.90
58413;DHT22;44209;52.952;6.790;2023-07-13T13:05:02;21.00;99.90
58413;DHT22;44209;52.952;6.790;2023-07-13T13:07:29;20.90;99.90
58413;DHT22;44209;52.952;6.790;2023-07-13T13:09:55;20.90;99.90
58413;DHT22;44209;52.952;6.790;2023-07-13T13:12:22;20.70;99.90
58413;DHT22;44209;52.952;6.790;2023-07-13T13:14:51;20.70;99.90
58413;DHT22;44209;52.952;6.790;2023-07-13T13:17:29;20.80;99.90
58413;DHT22;44209;52.952;6.790;2023-07-13T13:19:56;21.00;99.90
58413;DHT22;44209;52.952;6.790;2023-07-13T13:22:22;21.10;99.90
58413;DHT22;44209;52.952;6.790;2023-07-13T13:24:48;21.20;99.90
58413;DHT22;44209;52.952;6.790;2023-07-13T13:27:19;21.20;99.90
58413;DHT22;44209;52.952;6.790;2023-07-13T13:29:46;21.10;99.90
58413;DHT22;44209;52.952;6.790;2023-07-13T13:32:13;20.90;99.90
58413;DHT22;44209;52.952;6.790;2023-07-13T13:34:39;20.90;99.90
58413;DHT22;44209;52.952;6.790;2023-07-13T13:37:20;21.20;99.90
58413;DHT22;44209;52.952;6.790;2023-07-13T13:39:46;21.50;99.90
58413;DHT22;44209;52.952;6.790;2023-07-13T13:42:12;21.80;99.90
58413;DHT22;44209;52.952;6.790;2023-07-13T13:44:38;22.00;99.90
58413;DHT22;44209;52.952;6.790;2023-07-13T13:47:20;22.10;99.90
58413;DHT22;44209;52.952;6.790;2023-07-13T13:49:47;22.00;99.90
58413;DHT22;44209;52.952;6.790;2023-07-13T13:52:12;21.70;99.90
58413;DHT22;44209;52.952;6.790;2023-07-13T13:54:38;21.50;99.90
58413;DHT22;44209;52.952;6.790;2023-07-13T13:57:04;21.30;99.90
58413;DHT22;44209;52.952;6.790;2023-07-13T13:59:30;21.40;99.90
58413;DHT22;44209;52.952;6.790;2023-07-13T14:01:58;21.60;99.90
58413;DHT22;44209;52.952;6.790;2023-07-13T14:04:25;21.60;99.90
58413;DHT22;44209;52.952;6.790;2023-07-13T14:06:51;21.70;99.90
58413;DHT22;44209;52.952;6.790;2023-07-13T14:09:18;21.60;99.90
58413;DHT22;44209;52.952;6.790;2023-07-13T14:11:46;21.50;99.90
58413;DHT22;44209;52.952;6.790;2023-07-13T14:14:17;21.50;99.90
58413;DHT22;44209;52.952;6.790;2023-07-13T14:16:44;21.70;99.90
58413;DHT22;44209;52.952;6.790;2023-07-13T14:19:12;21.90;99.90
58413;DHT22;44209;52.952;6.790;2023-07-13T14:21:40;22.10;99.90
58413;DHT22;44209;52.952;6.790;2023-07-13T14:24:06;22.20;99.90
58413;DHT22;44209;52.952;6.790;2023-07-13T14:26:39;22.30;99.90
58413;DHT22;44209;52.952;6.790;2023-07-13T14:29:15;22.40;99.90
58413;DHT22;44209;52.952;6.790;2023-07-13T14:31:42;22.20;99.90
58413;DHT22;44209;52.952;6.790;2023-07-13T14:34:10;22.00;99.90
58413;DHT22;44209;52.952;6.790;2023-07-13T14:36:44;22.00;99.90
58413;DHT22;44209;52.952;6.790;2023-07-13T14:39:22;22.10;99.90
58413;DHT22;44209;52.952;6.790;2023-07-13T14:41:51;22.10;99.90
58413;DHT22;44209;52.952;6.790;2023-07-13T14:44:22;22.10;99.90
58413;DHT22;44209;52.952;6.790;2023-07-13T14:46:49;22.20;99.90
58413;DHT22;44209;52.952;6.790;2023-07-13T14:49:37;22.30;99.90
58413;DHT22;44209;52.952;6.790;2023-07-13T14:52:13;22.40;99.90
58413;DHT22;44209;52.952;6.790;2023-07-13T14:54:40;22.40;99.90
58413;DHT22;44209;52.952;6.790;2023-07-13T14:57:15;22.20;99.90
58413;DHT22;44209;52.952;6.790;2023-07-13T14:59:42;22.30;99.90
58413;DHT22;44209;52.952;6.790;2023-07-13T15:02:30;22.20;99.90
58413;DHT22;44209;52.952;6.790;2023-07-13T15:04:56;22.20;99.90
58413;DHT22;44209;52.952;6.790;2023-07-13T15:07:22;22.20;99.90
58413;DHT22;44209;52.952;6.790;2023-07-13T15:09:49;22.30;99.90
58413;DHT22;44209;52.952;6.790;2023-07-13T15:12:16;22.20;99.90
58413;DHT22;44209;52.952;6.790;2023-07-13T15:14:42;22.00;99.90
58413;DHT22;44209;52.952;6.790;2023-07-13T15:17:27;21.90;99.90
58413;DHT22;44209;52.952;6.790;2023-07-13T15:19:55;21.90;99.90
58413;DHT22;44209;52.952;6.790;2023-07-13T15:22:21;22.20;99.90
58413;DHT22;44209;52.952;6.790;2023-07-13T15:24:47;22.40;99.90
58413;DHT22;44209;52.952;6.790;2023-07-13T15:27:13;22.40;99.90
58413;DHT22;44209;52.952;6.790;2023-07-13T15:29:39;22.30;99.90
58413;DHT22;44209;52.952;6.790;2023-07-13T15:32:15;22.50;99.90
58413;DHT22;44209;52.952;6.790;2023-07-13T15:34:41;22.50;99.90
58413;DHT22;44209;52.952;6.790;2023-07-13T15:37:16;22.50;99.90
58413;DHT22;44209;52.952;6.790;2023-07-13T15:39:43;22.60;99.90
58413;DHT22;44209;52.952;6.790;2023-07-13T15:42:27;22.50;99.90
58413;DHT22;44209;52.952;6.790;2023-07-13T15:44:52;22.50;99.90
58413;DHT22;44209;52.952;6.790;2023-07-13T15:47:18;22.50;99.90
58413;DHT22;44209;52.952;6.790;2023-07-13T15:49:44;22.40;99.90
58413;DHT22;44209;52.952;6.790;2023-07-13T15:52:21;22.20;99.90
58413;DHT22;44209;52.952;6.790;2023-07-13T15:54:47;22.30;99.90
58413;DHT22;44209;52.952;6.790;2023-07-13T15:57:13;22.40;99.90
58413;DHT22;44209;52.952;6.790;2023-07-13T15:59:41;22.50;99.90
58413;DHT22;44209;52.952;6.790;2023-07-13T16:02:20;22.50;99.90
58413;DHT22;44209;52.952;6.790;2023-07-13T16:04:47;22.50;99.90
58413;DHT22;44209;52.952;6.790;2023-07-13T16:07:15;22.40;99.90
58413;DHT22;44209;52.952;6.790;2023-07-13T16:09:45;22.50;99.90
58413;DHT22;44209;52.952;6.790;2023-07-13T16:12:13;22.40;99.90
58413;DHT22;44209;52.952;6.790;2023-07-13T16:14:40;22.30;99.90
58413;DHT22;44209;52.952;6.790;2023-07-13T16:17:13;22.40;99.90